KHNR

Harlan Municipal Airport

Harlan, Iowa, USA
METAR KHNR 230255Z AUTO 15005KT 10SM CLR 22/20 A3002 RMK AO2
Observed Flight Rules
May-23 @ 02:55 UTC (9 minutes ago) Visual Flight Rules
Wind Visibility Clouds
150° at 5 knots 10 miles
  • Clear skies
Temperatures Readings
Current 22°C / 72°F
Dewpoint 20°C / 68°F
Humidity 88%
Altimeter 30.02" Hg
Pressure 1017 hPa
Elevation 375
METAR KHNR 230255Z AUTO 15005KT 10SM CLR 22/20 A3002 RMK AO2
Observed Flight Rules
May-23 @ 02:55 UTC
(9 minutes ago)
VFR
Wind Visibility
150° at 5 knots 10 miles
Clouds
  • Clear skies
Temperature Dewpoint
22°C / 72°F 20°C / 68°F
Humidity Altimeter Pressure
88% 30.02" Hg 1017 hPa